Time;durP1;ratioP1;P1;durP2;ratioP2;P2;SDS_P1;SDS_P2;PMS_P1;PMS_P2;Temp;Humidity;BMP_temperature;BMP_pressure;BME280_temperature;BME280_humidity;BME280_pressure;Samples;Min_cycle;Max_cycle;Signal;HPM_P1;HPM_P2
2024/01/20 00:02:16;;;;;;;1.85;0.20;;;8.80;96.70;;;;;;5055924;28;20720;-73
2024/01/20 00:04:45;;;;;;;0.90;0.20;;;8.90;96.70;;;;;;5078887;28;20164;-74
2024/01/20 00:07:14;;;;;;;0.30;0.15;;;8.90;96.70;;;;;;5070659;28;20060;-73
2024/01/20 00:09:42;;;;;;;3.25;0.20;;;8.80;96.70;;;;;;5066251;28;20543;-73
2024/01/20 00:12:18;;;;;;;1.30;0.20;;;8.90;96.70;;;;;;5074747;28;20106;-71
2024/01/20 00:14:48;;;;;;;0.80;0.10;;;8.80;96.70;;;;;;5065636;28;20099;-72
2024/01/20 00:17:16;;;;;;;1.13;0.30;;;8.80;96.70;;;;;;5066670;28;20523;-72
2024/01/20 00:19:54;;;;;;;1.85;0.40;;;8.70;96.70;;;;;;5076623;28;20053;-72
2024/01/20 00:22:23;;;;;;;1.55;0.30;;;8.70;96.70;;;;;;5066407;28;20504;-73
2024/01/20 00:24:55;;;;;;;1.27;0.30;;;8.70;96.70;;;;;;5067199;28;20810;-73
2024/01/20 00:27:24;;;;;;;0.85;0.10;;;8.60;96.70;;;;;;5068080;28;20056;-72
2024/01/20 00:29:54;;;;;;;1.40;0.40;;;8.60;96.70;;;;;;5051255;28;20067;-72
2024/01/20 00:32:23;;;;;;;1.23;0.20;;;8.50;96.70;;;;;;5069052;28;20078;-73
2024/01/20 00:34:52;;;;;;;2.38;0.30;;;8.50;96.70;;;;;;5064864;28;20052;-72
2024/01/20 00:37:36;;;;;;;2.65;0.40;;;8.50;96.70;;;;;;5063972;28;20121;-74
2024/01/20 00:40:06;;;;;;;1.58;0.20;;;8.50;96.70;;;;;;5077962;28;20083;-72
2024/01/20 00:42:35;;;;;;;1.98;0.40;;;8.50;96.70;;;;;;5051013;28;20060;-74
2024/01/20 00:45:06;;;;;;;2.40;0.43;;;8.40;96.70;;;;;;5073929;28;20068;-73
2024/01/20 00:47:35;;;;;;;1.60;0.40;;;8.40;96.70;;;;;;5068284;28;20255;-76
2024/01/20 00:50:07;;;;;;;3.30;0.30;;;8.30;96.70;;;;;;5073362;28;20143;-75
2024/01/20 00:52:36;;;;;;;2.42;0.30;;;8.30;96.70;;;;;;5082642;28;20055;-74
2024/01/20 00:55:06;;;;;;;2.17;0.40;;;8.30;96.70;;;;;;5086524;28;20052;-75
2024/01/20 00:57:34;;;;;;;2.10;0.80;;;8.20;96.70;;;;;;5069232;28;20248;-74
2024/01/20 01:00:09;;;;;;;0.93;0.38;;;8.10;96.70;;;;;;5084473;28;20136;-74
2024/01/20 01:02:40;;;;;;;0.82;0.20;;;8.10;96.70;;;;;;5085032;28;20136;-73
2024/01/20 01:05:09;;;;;;;2.08;0.30;;;8.10;96.70;;;;;;5086820;28;20662;-74
2024/01/20 01:07:38;;;;;;;1.98;0.55;;;8.20;96.70;;;;;;5087060;28;20059;-75
2024/01/20 01:10:07;;;;;;;2.63;0.30;;;8.10;96.70;;;;;;5076288;28;20056;-74
2024/01/20 01:12:35;;;;;;;0.90;0.50;;;8.10;96.70;;;;;;5083947;28;20052;-74
2024/01/20 01:15:06;;;;;;;2.08;0.40;;;8.10;96.70;;;;;;5078055;28;20052;-73
2024/01/20 01:17:36;;;;;;;1.20;0.40;;;8.10;96.70;;;;;;5087201;28;20070;-73
2024/01/20 01:20:07;;;;;;;1.52;0.45;;;8.10;96.70;;;;;;5077187;28;20064;-73
2024/01/20 01:22:38;;;;;;;1.42;0.20;;;8.00;96.70;;;;;;5084042;28;20056;-74
2024/01/20 01:25:09;;;;;;;1.05;0.30;;;8.00;96.70;;;;;;5082113;28;20539;-74
2024/01/20 01:27:37;;;;;;;1.83;0.30;;;7.90;96.70;;;;;;5083453;28;20044;-73
2024/01/20 01:30:13;;;;;;;1.25;0.40;;;7.90;96.70;;;;;;5086259;28;20056;-73
2024/01/20 01:32:42;;;;;;;1.35;0.28;;;8.00;96.70;;;;;;5081492;28;20098;-74
2024/01/20 01:35:11;;;;;;;1.20;0.40;;;8.10;96.70;;;;;;5085885;28;20098;-74
2024/01/20 01:37:41;;;;;;;2.40;0.47;;;8.00;96.70;;;;;;5082961;28;20501;-73
2024/01/20 01:40:12;;;;;;;0.88;0.20;;;8.00;96.70;;;;;;5081398;28;20134;-73
2024/01/20 01:42:42;;;;;;;1.02;0.30;;;8.10;96.70;;;;;;5082599;28;20074;-73
2024/01/20 01:45:12;;;;;;;1.92;0.30;;;8.10;96.70;;;;;;5076700;28;20536;-73
2024/01/20 01:47:42;;;;;;;4.22;0.40;;;8.00;96.70;;;;;;5071322;28;20497;-73
2024/01/20 01:50:11;;;;;;;1.75;0.30;;;8.00;96.70;;;;;;5068065;28;20398;-72
2024/01/20 01:52:43;;;;;;;1.35;0.30;;;8.10;96.70;;;;;;5069119;28;20060;-74
2024/01/20 01:55:13;;;;;;;1.00;0.35;;;8.10;96.70;;;;;;5065637;28;20125;-72
2024/01/20 01:57:42;;;;;;;1.77;0.38;;;8.10;96.70;;;;;;5066288;28;20527;-72
2024/01/20 02:00:13;;;;;;;2.15;0.47;;;8.10;96.70;;;;;;5065298;28;20095;-72
2024/01/20 02:02:41;;;;;;;1.75;0.40;;;8.10;96.70;;;;;;5072560;28;20056;-73
2024/01/20 02:05:13;;;;;;;0.93;0.30;;;8.10;96.70;;;;;;5066703;28;20505;-72
2024/01/20 02:07:44;;;;;;;1.00;0.38;;;8.10;96.70;;;;;;5074745;28;20060;-72
2024/01/20 02:10:18;;;;;;;1.27;0.40;;;8.00;96.70;;;;;;5065202;28;20779;-74
2024/01/20 02:12:46;;;;;;;0.95;0.30;;;8.00;96.70;;;;;;5049253;28;20060;-73
2024/01/20 02:15:17;;;;;;;2.08;0.60;;;7.90;96.70;;;;;;5065998;28;20044;-72
2024/01/20 02:17:50;;;;;;;0.93;0.20;;;7.90;96.70;;;;;;5064143;28;20053;-72
2024/01/20 02:20:22;;;;;;;1.98;0.38;;;7.90;96.70;;;;;;5064655;28;20044;-72
2024/01/20 02:22:54;;;;;;;1.13;0.28;;;7.90;96.70;;;;;;5058090;28;21168;-72
2024/01/20 02:25:31;;;;;;;1.13;0.20;;;7.90;96.70;;;;;;5046786;28;20053;-71
2024/01/20 02:27:59;;;;;;;1.00;0.30;;;7.90;96.70;;;;;;5074719;28;20071;-72
2024/01/20 02:30:46;;;;;;;1.38;0.20;;;7.80;96.70;;;;;;5062182;28;20505;-71
2024/01/20 02:33:16;;;;;;;0.98;0.30;;;7.80;96.70;;;;;;5065410;28;20064;-72
2024/01/20 02:35:46;;;;;;;1.00;0.25;;;7.80;96.70;;;;;;5049261;28;20127;-72
2024/01/20 02:38:16;;;;;;;1.33;0.30;;;7.80;96.70;;;;;;5067313;28;20645;-71
2024/01/20 02:40:46;;;;;;;1.70;0.30;;;7.80;96.70;;;;;;5063782;28;20417;-72
2024/01/20 02:43:15;;;;;;;3.42;0.40;;;7.80;96.70;;;;;;5067240;28;20107;-72
2024/01/20 02:45:44;;;;;;;1.17;0.20;;;7.80;96.70;;;;;;5065278;28;20530;-72
2024/01/20 02:48:12;;;;;;;0.95;0.20;;;7.70;96.70;;;;;;5065412;28;20056;-72
2024/01/20 02:50:44;;;;;;;0.98;0.20;;;7.70;96.70;;;;;;5064954;28;20052;-72
2024/01/20 02:53:13;;;;;;;0.80;0.30;;;7.60;96.70;;;;;;5065366;28;20474;-72
2024/01/20 02:55:44;;;;;;;0.93;0.22;;;7.60;96.70;;;;;;5044933;28;20512;-72
2024/01/20 02:58:12;;;;;;;1.35;0.30;;;7.50;96.70;;;;;;5046595;28;20567;-71
2024/01/20 03:00:42;;;;;;;1.25;0.40;;;7.50;96.70;;;;;;5063768;28;20041;-72
2024/01/20 03:03:13;;;;;;;0.93;0.40;;;7.60;96.70;;;;;;5064476;28;20555;-72
2024/01/20 03:05:41;;;;;;;3.05;0.47;;;7.50;96.70;;;;;;5063841;28;20555;-72
2024/01/20 03:08:10;;;;;;;1.45;0.30;;;7.50;96.70;;;;;;5057314;28;20052;-72
2024/01/20 03:10:39;;;;;;;0.55;0.30;;;7.50;96.70;;;;;;5057962;28;20048;-72
2024/01/20 03:13:09;;;;;;;1.10;0.30;;;7.50;96.70;;;;;;5064444;28;20082;-72
2024/01/20 03:15:37;;;;;;;0.68;0.32;;;7.50;96.70;;;;;;5063927;28;20086;-72
2024/01/20 03:18:07;;;;;;;1.55;0.45;;;7.50;96.70;;;;;;5063804;28;20084;-71
2024/01/20 03:20:35;;;;;;;1.38;0.40;;;7.50;96.70;;;;;;5056899;28;20051;-72
2024/01/20 03:23:04;;;;;;;2.78;0.70;;;7.50;96.70;;;;;;5066192;28;20056;-72
2024/01/20 03:25:35;;;;;;;1.33;0.30;;;7.40;96.70;;;;;;5064143;28;20084;-72
2024/01/20 03:28:04;;;;;;;1.77;0.50;;;7.40;96.70;;;;;;5064701;28;20048;-72
2024/01/20 03:30:35;;;;;;;1.52;0.50;;;7.50;96.70;;;;;;5064529;28;20068;-72
2024/01/20 03:33:04;;;;;;;1.50;0.30;;;7.50;96.70;;;;;;5065657;28;20044;-72
2024/01/20 03:35:33;;;;;;;1.92;0.52;;;7.50;96.70;;;;;;5064339;28;20833;-72
2024/01/20 03:38:02;;;;;;;2.22;0.40;;;7.50;96.70;;;;;;5064291;28;20528;-72
2024/01/20 03:40:31;;;;;;;1.85;0.80;;;7.40;96.70;;;;;;5064859;28;20508;-72
2024/01/20 03:43:39;;;;;;;2.80;0.43;;;7.40;96.70;;;;;;5063441;28;20092;-71
2024/01/20 03:46:09;;;;;;;2.20;0.47;;;7.40;96.70;;;;;;5057644;28;20061;-71
2024/01/20 03:48:37;;;;;;;1.55;0.50;;;7.50;96.70;;;;;;5063674;28;20138;-73
2024/01/20 03:51:08;;;;;;;1.23;0.40;;;7.40;96.70;;;;;;5065369;28;20056;-72
2024/01/20 03:53:37;;;;;;;1.73;0.50;;;7.40;96.70;;;;;;5047612;28;20062;-72
2024/01/20 03:56:05;;;;;;;1.52;0.28;;;7.30;96.70;;;;;;5063964;28;20394;-71
2024/01/20 03:58:34;;;;;;;0.70;0.43;;;7.30;96.70;;;;;;5074865;28;20550;-71
2024/01/20 04:01:02;;;;;;;2.20;0.47;;;7.30;96.70;;;;;;5071647;28;20122;-70
2024/01/20 04:03:33;;;;;;;0.80;0.35;;;7.30;96.70;;;;;;5067173;28;20070;-72
2024/01/20 04:06:03;;;;;;;4.63;0.63;;;7.30;96.70;;;;;;5074607;28;20084;-72
2024/01/20 04:08:32;;;;;;;2.28;0.50;;;7.30;96.70;;;;;;5042250;28;20409;-72
2024/01/20 04:11:00;;;;;;;2.75;0.60;;;7.20;96.70;;;;;;5071629;28;20055;-71
2024/01/20 04:13:32;;;;;;;1.95;0.60;;;7.20;96.70;;;;;;5069313;28;20051;-73
2024/01/20 04:16:01;;;;;;;1.55;0.45;;;7.20;96.70;;;;;;5066338;28;20080;-71
2024/01/20 04:18:30;;;;;;;2.03;0.73;;;7.20;96.70;;;;;;5068794;28;20589;-72
2024/01/20 04:21:01;;;;;;;4.93;0.60;;;7.10;96.70;;;;;;5075479;28;20048;-72
2024/01/20 04:23:31;;;;;;;2.25;0.40;;;7.10;96.70;;;;;;5070597;28;20060;-71
2024/01/20 04:26:00;;;;;;;3.33;0.55;;;7.00;96.70;;;;;;5072317;28;20048;-72
2024/01/20 04:28:28;;;;;;;2.05;0.50;;;7.00;96.70;;;;;;5042392;28;20075;-72
2024/01/20 04:30:57;;;;;;;2.28;0.50;;;7.00;96.70;;;;;;5075871;28;20052;-72
2024/01/20 04:33:25;;;;;;;1.63;0.50;;;7.00;96.70;;;;;;5075927;28;20616;-72
2024/01/20 04:35:53;;;;;;;1.73;0.50;;;7.00;96.70;;;;;;5074014;28;20443;-72
2024/01/20 04:38:28;;;;;;;1.00;0.50;;;7.00;96.70;;;;;;5078205;28;20571;-71
2024/01/20 04:40:57;;;;;;;2.72;0.50;;;7.10;96.70;;;;;;5048766;28;20052;-72
2024/01/20 04:43:33;;;;;;;1.33;0.40;;;7.00;96.70;;;;;;5080457;28;21266;-72
2024/01/20 04:46:03;;;;;;;1.25;0.52;;;7.00;96.70;;;;;;5077204;28;20137;-74
2024/01/20 04:48:33;;;;;;;1.45;0.43;;;7.00;96.70;;;;;;5069173;28;20616;-71
2024/01/20 04:51:03;;;;;;;2.38;0.47;;;7.10;96.70;;;;;;5076198;28;20048;-71
2024/01/20 04:53:35;;;;;;;1.10;0.40;;;7.10;96.70;;;;;;5080083;28;20161;-73
2024/01/20 04:56:04;;;;;;;0.85;0.30;;;7.10;96.70;;;;;;5084170;28;20586;-74
2024/01/20 04:58:36;;;;;;;2.95;0.40;;;7.00;96.70;;;;;;5086146;28;20139;-73
2024/01/20 05:01:06;;;;;;;1.85;0.30;;;7.10;96.70;;;;;;5068853;28;20040;-74
2024/01/20 05:03:35;;;;;;;3.13;0.40;;;7.00;96.70;;;;;;5059936;28;20052;-74
2024/01/20 05:06:06;;;;;;;2.47;0.50;;;7.00;96.70;;;;;;5083717;28;20629;-74
2024/01/20 05:08:38;;;;;;;2.63;0.57;;;7.00;96.70;;;;;;5069304;28;20059;-74
2024/01/20 05:11:07;;;;;;;2.55;0.45;;;6.90;96.70;;;;;;5086089;28;20097;-74
2024/01/20 05:13:36;;;;;;;1.48;0.57;;;7.00;96.70;;;;;;5069045;28;20067;-74
2024/01/20 05:16:05;;;;;;;1.08;0.30;;;6.90;96.70;;;;;;5083089;28;20056;-74
2024/01/20 05:18:34;;;;;;;1.00;0.35;;;6.80;96.70;;;;;;5084013;28;20114;-74
2024/01/20 05:21:04;;;;;;;1.52;0.32;;;6.90;96.70;;;;;;5080479;28;20513;-74
2024/01/20 05:23:33;;;;;;;0.98;0.40;;;7.00;96.70;;;;;;5073320;28;20045;-73
2024/01/20 05:26:05;;;;;;;0.70;0.30;;;6.90;96.70;;;;;;5082608;28;20060;-73
2024/01/20 05:28:36;;;;;;;2.08;0.68;;;6.90;96.70;;;;;;5085386;28;20070;-73
2024/01/20 05:31:05;;;;;;;3.20;0.60;;;6.90;96.70;;;;;;5083774;28;20516;-74
2024/01/20 05:33:34;;;;;;;2.20;0.30;;;6.90;96.70;;;;;;5075927;28;20059;-72
2024/01/20 05:36:04;;;;;;;2.20;0.40;;;7.00;96.70;;;;;;5086257;28;20171;-72
2024/01/20 05:38:33;;;;;;;1.80;0.43;;;6.90;96.70;;;;;;5076907;28;20044;-72
2024/01/20 05:41:02;;;;;;;0.63;0.30;;;7.00;96.70;;;;;;5080337;28;20152;-72
2024/01/20 05:43:32;;;;;;;1.35;0.50;;;6.90;96.70;;;;;;5082919;28;20084;-72
2024/01/20 05:46:06;;;;;;;2.10;0.60;;;6.90;96.70;;;;;;5081522;28;20048;-72
2024/01/20 05:48:35;;;;;;;1.55;0.30;;;6.90;96.70;;;;;;5075492;28;20102;-72
2024/01/20 05:51:08;;;;;;;1.25;0.30;;;6.80;96.70;;;;;;5085872;28;20044;-72
2024/01/20 05:53:37;;;;;;;1.38;0.25;;;6.90;96.70;;;;;;5086776;28;20052;-72
2024/01/20 05:56:06;;;;;;;1.15;0.30;;;6.80;96.70;;;;;;5084074;28;20637;-72
2024/01/20 05:58:37;;;;;;;0.82;0.50;;;6.70;96.70;;;;;;5083419;28;20399;-72
2024/01/20 06:01:09;;;;;;;1.00;0.32;;;6.70;96.70;;;;;;5082929;28;20100;-71
2024/01/20 06:03:39;;;;;;;0.98;0.40;;;6.80;96.70;;;;;;5086208;28;20725;-72
2024/01/20 06:06:25;;;;;;;1.55;0.40;;;6.70;96.70;;;;;;5090338;28;20055;-72
2024/01/20 06:08:54;;;;;;;1.10;0.40;;;6.80;96.70;;;;;;5085783;28;20545;-72
2024/01/20 06:11:24;;;;;;;1.25;0.40;;;6.70;96.70;;;;;;5085702;28;20485;-72
2024/01/20 06:13:58;;;;;;;1.98;0.55;;;6.70;96.70;;;;;;5085731;28;20060;-72
2024/01/20 06:16:27;;;;;;;2.42;0.30;;;6.60;96.70;;;;;;5086051;28;20421;-72
2024/01/20 06:18:56;;;;;;;1.42;0.40;;;6.60;96.70;;;;;;5085813;28;20779;-72
2024/01/20 06:21:25;;;;;;;1.65;0.47;;;6.70;96.70;;;;;;5085781;28;20052;-72
2024/01/20 06:23:55;;;;;;;2.42;0.47;;;6.70;96.70;;;;;;5060638;28;20052;-72
2024/01/20 06:26:23;;;;;;;1.27;0.35;;;6.60;96.70;;;;;;5082834;28;20467;-72
2024/01/20 06:28:52;;;;;;;1.50;0.40;;;6.60;96.70;;;;;;5079638;28;20060;-72
2024/01/20 06:31:24;;;;;;;0.95;0.40;;;6.60;96.70;;;;;;5081371;28;20087;-71
2024/01/20 06:33:54;;;;;;;2.55;0.60;;;6.60;96.70;;;;;;5081629;28;20110;-72
2024/01/20 06:36:26;;;;;;;2.08;0.55;;;6.60;96.70;;;;;;5081773;28;20056;-71
2024/01/20 06:38:56;;;;;;;2.38;0.60;;;6.50;96.70;;;;;;5084995;28;20164;-72
2024/01/20 06:41:25;;;;;;;3.85;0.60;;;6.50;96.70;;;;;;5081392;28;20049;-73
2024/01/20 06:43:54;;;;;;;0.70;0.20;;;6.60;96.70;;;;;;5079831;28;20060;-72
2024/01/20 06:46:26;;;;;;;0.60;0.22;;;6.60;96.70;;;;;;5083893;28;20711;-72
2024/01/20 06:48:56;;;;;;;2.08;0.40;;;6.50;96.70;;;;;;5081940;28;20109;-72
2024/01/20 06:51:27;;;;;;;1.42;0.40;;;6.50;96.70;;;;;;5066194;28;20104;-72
2024/01/20 06:53:58;;;;;;;3.47;0.73;;;6.60;96.70;;;;;;5072022;28;20049;-72
2024/01/20 06:56:27;;;;;;;2.22;0.50;;;6.60;96.70;;;;;;5066123;28;20061;-72
2024/01/20 06:58:57;;;;;;;1.98;0.43;;;6.60;96.70;;;;;;5074160;28;20083;-72
2024/01/20 07:01:28;;;;;;;2.10;0.60;;;6.60;96.70;;;;;;5073295;28;20105;-72
2024/01/20 07:03:57;;;;;;;1.40;0.60;;;6.60;96.70;;;;;;5055881;28;20091;-72
2024/01/20 07:06:26;;;;;;;3.38;0.32;;;6.60;96.70;;;;;;5066901;28;20053;-71
2024/01/20 07:08:55;;;;;;;1.38;0.52;;;6.70;96.70;;;;;;5070775;28;20106;-72
2024/01/20 07:11:25;;;;;;;1.77;0.40;;;6.70;96.70;;;;;;5073408;28;20455;-72
2024/01/20 07:13:54;;;;;;;3.58;0.68;;;6.70;96.70;;;;;;5069771;28;20097;-72
2024/01/20 07:16:25;;;;;;;1.23;0.40;;;6.60;96.70;;;;;;5060930;28;20062;-71
2024/01/20 07:18:56;;;;;;;0.55;0.20;;;6.60;96.70;;;;;;5076629;28;20052;-72
2024/01/20 07:21:25;;;;;;;3.22;0.43;;;6.60;96.70;;;;;;5073693;28;20055;-72
2024/01/20 07:23:56;;;;;;;0.95;0.17;;;6.60;96.70;;;;;;5066577;28;20052;-72
2024/01/20 07:26:25;;;;;;;2.05;0.73;;;6.60;96.70;;;;;;5062731;28;20153;-72
2024/01/20 07:28:56;;;;;;;0.77;0.30;;;6.60;96.70;;;;;;5065516;28;20135;-72
2024/01/20 07:31:25;;;;;;;0.70;0.20;;;6.70;96.70;;;;;;5074551;28;20048;-72
2024/01/20 07:33:55;;;;;;;1.05;0.32;;;6.70;96.70;;;;;;5067968;28;20067;-71
2024/01/20 07:36:35;;;;;;;1.60;0.40;;;6.80;96.70;;;;;;5065126;28;20555;-72
2024/01/20 07:39:09;;;;;;;1.08;0.50;;;6.80;96.70;;;;;;5054872;28;20056;-72
2024/01/20 07:41:39;;;;;;;3.03;0.60;;;6.80;96.70;;;;;;5069011;28;20143;-72
2024/01/20 07:44:08;;;;;;;2.20;0.35;;;6.90;96.70;;;;;;5069677;28;20575;-72
2024/01/20 07:46:37;;;;;;;3.38;0.73;;;6.90;96.70;;;;;;5071562;28;20078;-72
2024/01/20 07:49:07;;;;;;;2.75;0.60;;;6.80;96.70;;;;;;5075308;28;20056;-72
2024/01/20 07:51:38;;;;;;;2.25;0.30;;;6.90;96.70;;;;;;5064792;28;20568;-72
2024/01/20 07:54:12;;;;;;;2.15;0.30;;;6.90;96.70;;;;;;5063311;28;20060;-72
2024/01/20 07:56:41;;;;;;;1.02;0.35;;;6.90;96.70;;;;;;5064369;28;20061;-72
2024/01/20 07:59:09;;;;;;;1.95;0.30;;;6.90;96.70;;;;;;5064664;28;20061;-72
2024/01/20 08:01:38;;;;;;;0.98;0.30;;;6.90;96.70;;;;;;5063612;28;20159;-72
2024/01/20 08:04:09;;;;;;;0.90;0.40;;;6.90;96.70;;;;;;5064273;28;20053;-72
2024/01/20 08:06:51;;;;;;;1.88;0.40;;;6.90;96.70;;;;;;5052424;28;20056;-72
2024/01/20 08:09:48;;;;;;;1.55;0.47;;;7.00;96.70;;;;;;5061002;28;20157;-71
2024/01/20 08:12:18;;;;;;;1.38;0.55;;;7.10;96.70;;;;;;5069232;28;20587;-72
2024/01/20 08:14:47;;;;;;;4.00;0.50;;;7.10;96.70;;;;;;5065977;28;20056;-72
2024/01/20 08:17:17;;;;;;;1.80;0.40;;;7.10;96.70;;;;;;5063452;28;20103;-72
2024/01/20 08:19:49;;;;;;;1.55;0.47;;;7.20;96.70;;;;;;5062943;28;20536;-72
2024/01/20 08:22:19;;;;;;;0.85;0.30;;;7.10;96.70;;;;;;5069638;28;20052;-71
2024/01/20 08:24:48;;;;;;;1.73;0.38;;;7.10;96.70;;;;;;5066738;28;20689;-72
2024/01/20 08:27:18;;;;;;;2.42;0.40;;;7.20;96.70;;;;;;5049411;28;20547;-72
2024/01/20 08:29:47;;;;;;;2.88;0.55;;;7.20;96.70;;;;;;5063612;28;20056;-72
2024/01/20 08:32:19;;;;;;;1.02;0.45;;;7.30;96.70;;;;;;5061707;28;20155;-72
2024/01/20 08:34:51;;;;;;;5.45;0.50;;;7.30;96.70;;;;;;5064308;28;20344;-72
2024/01/20 08:37:22;;;;;;;1.77;0.40;;;7.30;96.70;;;;;;5064047;28;20064;-72
2024/01/20 08:39:51;;;;;;;1.85;0.50;;;7.30;96.70;;;;;;5045712;28;20184;-71
2024/01/20 08:42:20;;;;;;;2.53;0.80;;;7.30;96.70;;;;;;5062922;28;20036;-74
2024/01/20 08:44:49;;;;;;;2.33;0.90;;;7.40;96.70;;;;;;5063541;28;20066;-72
2024/01/20 08:47:18;;;;;;;2.00;0.98;;;7.40;96.70;;;;;;5048640;28;20616;-71
2024/01/20 08:49:51;;;;;;;4.25;1.08;;;7.50;96.70;;;;;;5074934;28;20105;-71
2024/01/20 08:52:21;;;;;;;2.67;0.73;;;7.60;96.70;;;;;;5084741;28;20593;-71
2024/01/20 08:54:49;;;;;;;2.42;0.60;;;7.50;96.70;;;;;;5083252;28;20501;-71
2024/01/20 08:57:33;;;;;;;5.10;0.70;;;7.50;96.70;;;;;;5088937;28;20055;-71
2024/01/20 09:00:20;;;;;;;3.90;0.73;;;7.60;96.70;;;;;;5070063;28;20071;-72
2024/01/20 09:02:50;;;;;;;;;;;7.70;96.70;;;;;;5086939;28;20067;-70
2024/01/20 09:05:19;;;;;;;2.13;0.38;;;7.80;96.70;;;;;;5087236;28;19993;-72
2024/01/20 09:08:11;;;;;;;;;;;;;;;;;;;;;
2024/01/20 09:10:43;;;;;;;2.15;0.60;;;7.80;96.70;;;;;;5085601;28;20135;-72
2024/01/20 09:13:12;;;;;;;3.35;0.47;;;7.90;96.70;;;;;;5092068;28;20084;-71
2024/01/20 09:15:41;;;;;;;0.68;0.30;;;7.90;96.70;;;;;;5085825;28;20063;-72
2024/01/20 09:18:11;;;;;;;3.00;0.40;;;7.90;96.70;;;;;;5085380;28;20048;-71
2024/01/20 09:20:43;;;;;;;2.45;0.50;;;8.00;96.70;;;;;;5066030;28;20047;-70
2024/01/20 09:23:12;;;;;;;1.63;0.50;;;8.00;96.70;;;;;;5085409;28;20142;-71
2024/01/20 09:25:42;;;;;;;2.47;0.80;;;8.10;96.70;;;;;;5087647;28;20060;-72
2024/01/20 09:28:11;;;;;;;1.27;0.50;;;8.10;96.70;;;;;;5069002;28;20136;-71
2024/01/20 09:30:39;;;;;;;1.90;0.50;;;8.20;96.70;;;;;;5090294;28;20570;-71
2024/01/20 09:33:08;;;;;;;1.42;0.65;;;8.20;96.70;;;;;;5086203;28;20101;-72
2024/01/20 09:35:37;;;;;;;2.53;0.40;;;8.30;96.70;;;;;;5085095;28;20056;-72
2024/01/20 09:38:06;;;;;;;2.38;0.52;;;8.40;96.70;;;;;;5077285;28;20226;-72
2024/01/20 09:40:36;;;;;;;1.52;0.30;;;8.40;96.70;;;;;;5083538;28;20079;-72
2024/01/20 09:43:05;;;;;;;0.50;0.30;;;8.40;96.70;;;;;;5064645;28;20056;-72
2024/01/20 09:45:38;;;;;;;1.33;0.43;;;8.40;96.70;;;;;;5084989;28;20131;-72
2024/01/20 09:48:07;;;;;;;2.53;0.30;;;8.50;96.70;;;;;;5093050;28;20051;-72
2024/01/20 09:50:36;;;;;;;0.60;0.40;;;8.60;96.70;;;;;;5085030;28;20873;-72
2024/01/20 09:53:14;;;;;;;3.33;0.60;;;8.60;96.70;;;;;;5085531;28;20103;-71
2024/01/20 09:55:45;;;;;;;1.80;0.40;;;8.80;96.70;;;;;;5077982;28;20056;-71
2024/01/20 09:58:14;;;;;;;0.90;0.25;;;8.70;96.70;;;;;;5065309;28;20060;-72
2024/01/20 10:00:43;;;;;;;1.98;0.60;;;8.90;96.70;;;;;;5083882;28;20052;-72
2024/01/20 10:03:13;;;;;;;2.75;0.40;;;8.90;96.70;;;;;;5081723;28;20054;-72
2024/01/20 10:05:44;;;;;;;1.00;0.40;;;8.90;96.70;;;;;;5085500;28;20044;-71
2024/01/20 10:08:12;;;;;;;1.05;0.30;;;9.10;96.70;;;;;;5076512;28;20079;-73
2024/01/20 10:10:44;;;;;;;0.80;0.30;;;9.10;96.70;;;;;;5076509;28;20402;-73
2024/01/20 10:13:14;;;;;;;2.40;0.30;;;9.20;96.70;;;;;;5077651;28;20079;-72
2024/01/20 10:15:43;;;;;;;3.45;0.40;;;9.30;96.70;;;;;;5067034;28;20065;-72
2024/01/20 10:18:11;;;;;;;1.08;0.30;;;9.30;96.70;;;;;;5084141;28;20072;-74
2024/01/20 10:20:40;;;;;;;1.95;0.28;;;9.40;96.70;;;;;;5091470;28;20052;-73
2024/01/20 10:23:17;;;;;;;1.40;0.35;;;9.60;96.70;;;;;;5077820;28;20057;-73
2024/01/20 10:25:47;;;;;;;1.15;0.45;;;9.50;96.70;;;;;;5076065;28;20060;-73
2024/01/20 10:28:16;;;;;;;2.20;0.50;;;9.60;96.70;;;;;;5067392;28;20067;-74
2024/01/20 10:30:44;;;;;;;1.15;0.30;;;9.70;96.70;;;;;;5072448;28;20180;-73
2024/01/20 10:33:14;;;;;;;1.00;0.40;;;9.70;96.70;;;;;;5068020;28;20141;-74
2024/01/20 10:35:45;;;;;;;0.85;0.25;;;9.70;96.70;;;;;;5077535;28;20274;-71
2024/01/20 10:38:14;;;;;;;5.30;2.60;;;9.70;96.70;;;;;;5073979;28;20467;-74
2024/01/20 10:40:45;;;;;;;1.17;0.52;;;9.70;96.70;;;;;;5062432;28;20576;-72
2024/01/20 10:43:20;;;;;;;1.30;0.22;;;9.70;96.70;;;;;;5068868;28;20076;-72
2024/01/20 10:45:57;;;;;;;5.82;2.55;;;9.70;96.70;;;;;;5082035;28;20052;-71
2024/01/20 10:48:34;;;;;;;3.85;2.03;;;9.60;96.70;;;;;;5081351;28;20052;-74
2024/01/20 10:51:09;;;;;;;5.10;2.30;;;9.70;96.70;;;;;;5075203;28;20056;-71
2024/01/20 10:53:38;;;;;;;3.42;0.85;;;9.60;96.70;;;;;;5073825;28;20079;-71
2024/01/20 10:56:08;;;;;;;2.15;0.80;;;9.70;96.70;;;;;;5075585;28;20056;-73
2024/01/20 10:58:45;;;;;;;2.72;0.73;;;9.70;96.70;;;;;;5073712;28;20066;-72
2024/01/20 11:01:13;;;;;;;1.65;0.35;;;9.70;96.70;;;;;;5065351;28;20154;-70
2024/01/20 11:03:41;;;;;;;0.93;0.32;;;9.70;96.70;;;;;;5082902;28;20044;-72
2024/01/20 11:06:19;;;;;;;2.67;0.30;;;9.60;96.70;;;;;;5077505;28;20060;-74
2024/01/20 11:08:51;;;;;;;1.58;0.40;;;9.60;96.70;;;;;;5080998;28;20052;-73
2024/01/20 11:11:26;;;;;;;1.17;0.20;;;9.70;96.70;;;;;;5078715;28;20097;-74
2024/01/20 11:13:59;;;;;;;2.35;0.32;;;10.00;96.70;;;;;;5087388;28;20066;-75
2024/01/20 11:16:32;;;;;;;0.70;0.20;;;9.90;96.70;;;;;;5073225;28;20048;-74
2024/01/20 11:19:07;;;;;;;1.13;0.20;;;9.90;96.70;;;;;;5075982;28;20101;-74
2024/01/20 11:21:37;;;;;;;0.93;0.20;;;9.90;96.70;;;;;;5064294;28;20544;-74
2024/01/20 11:24:07;;;;;;;0.93;0.30;;;10.00;96.70;;;;;;5077865;28;20087;-73
2024/01/20 11:26:37;;;;;;;1.33;0.35;;;10.00;96.70;;;;;;5076232;28;20459;-75
2024/01/20 11:29:08;;;;;;;1.20;0.43;;;10.10;96.70;;;;;;5081551;28;20052;-75
2024/01/20 11:31:46;;;;;;;1.55;0.32;;;10.20;96.70;;;;;;5079712;28;20049;-74
2024/01/20 11:34:14;;;;;;;0.98;0.28;;;10.20;96.70;;;;;;5066427;28;20066;-73
2024/01/20 11:36:44;;;;;;;1.83;0.80;;;10.20;96.70;;;;;;5074219;28;20151;-72
2024/01/20 11:39:14;;;;;;;1.38;0.63;;;10.30;96.70;;;;;;5058639;28;20059;-76
2024/01/20 11:41:42;;;;;;;3.70;0.80;;;10.60;96.70;;;;;;5077113;28;20056;-74
2024/01/20 11:44:19;;;;;;;1.23;0.40;;;10.70;96.70;;;;;;5059384;28;20059;-73
2024/01/20 11:47:03;;;;;;;1.00;0.50;;;10.60;96.70;;;;;;5077384;28;20053;-74
2024/01/20 11:49:34;;;;;;;0.88;0.28;;;10.70;96.70;;;;;;5077160;28;20192;-74
2024/01/20 11:52:03;;;;;;;0.88;0.30;;;10.70;96.70;;;;;;5082304;28;20134;-74
2024/01/20 11:54:34;;;;;;;1.65;0.60;;;10.70;96.70;;;;;;5078197;28;20072;-75
2024/01/20 11:57:04;;;;;;;1.75;0.50;;;10.50;96.70;;;;;;5058988;28;20064;-75
2024/01/20 11:59:35;;;;;;;1.83;0.50;;;10.70;96.70;;;;;;5078888;28;21401;-76
2024/01/20 12:02:04;;;;;;;1.77;0.28;;;10.90;96.70;;;;;;5073675;28;20056;-74
2024/01/20 12:04:33;;;;;;;2.38;0.47;;;10.90;96.70;;;;;;5079145;28;20048;-75
2024/01/20 12:07:04;;;;;;;0.68;0.30;;;10.80;96.70;;;;;;5077665;28;20052;-74
2024/01/20 12:09:33;;;;;;;0.82;0.32;;;10.80;96.70;;;;;;5081771;28;21296;-74
2024/01/20 12:12:02;;;;;;;1.13;0.50;;;10.90;96.70;;;;;;5075506;28;20082;-73
2024/01/20 12:14:30;;;;;;;1.08;0.50;;;10.80;96.70;;;;;;5083663;28;20048;-72
2024/01/20 12:17:00;;;;;;;2.35;0.52;;;10.80;96.70;;;;;;5080412;28;20895;-74
2024/01/20 12:19:32;;;;;;;2.40;0.52;;;10.80;96.70;;;;;;5080363;28;20048;-73
2024/01/20 12:22:07;;;;;;;1.75;0.35;;;11.00;96.70;;;;;;5055303;28;20052;-73
2024/01/20 12:24:37;;;;;;;1.30;0.63;;;11.10;96.70;;;;;;5057142;28;20060;-73
2024/01/20 12:27:05;;;;;;;4.88;3.38;;;11.10;96.70;;;;;;5077954;28;20132;-73
2024/01/20 12:29:33;;;;;;;5.00;2.13;;;11.20;96.70;;;;;;5082624;28;20059;-72
2024/01/20 12:32:04;;;;;;;1.92;1.00;;;11.30;96.70;;;;;;5078054;28;20747;-76
2024/01/20 12:34:34;;;;;;;1.85;0.70;;;11.20;96.70;;;;;;5082438;28;20052;-75
2024/01/20 12:37:20;;;;;;;0.63;0.30;;;11.40;96.70;;;;;;5082706;28;20052;-73
2024/01/20 12:39:49;;;;;;;3.25;0.50;;;11.40;96.70;;;;;;5081533;28;20414;-74
2024/01/20 12:42:18;;;;;;;0.95;0.40;;;11.50;96.70;;;;;;5080126;28;20045;-74
2024/01/20 12:44:48;;;;;;;3.20;0.70;;;11.50;96.70;;;;;;5075890;28;20200;-73
2024/01/20 12:47:18;;;;;;;1.20;0.30;;;11.60;96.70;;;;;;5077156;28;20051;-72
2024/01/20 12:49:47;;;;;;;1.77;0.40;;;11.70;96.70;;;;;;5068614;28;20055;-72
2024/01/20 12:52:19;;;;;;;1.35;0.50;;;11.60;96.70;;;;;;5086378;28;20090;-73
2024/01/20 12:54:49;;;;;;;5.13;3.85;;;11.60;96.70;;;;;;5086489;28;20068;-73
2024/01/20 12:57:18;;;;;;;3.00;1.15;;;11.80;96.70;;;;;;5080271;28;20056;-73
2024/01/20 12:59:48;;;;;;;2.33;0.40;;;11.80;96.70;;;;;;5082589;28;20577;-72
2024/01/20 13:02:19;;;;;;;0.63;0.50;;;11.60;96.70;;;;;;5083651;28;20055;-73
2024/01/20 13:04:49;;;;;;;0.68;0.30;;;11.60;96.70;;;;;;5069192;28;20055;-72
2024/01/20 13:07:22;;;;;;;0.85;0.45;;;11.50;96.70;;;;;;5075231;28;20583;-73
2024/01/20 13:09:50;;;;;;;2.60;0.40;;;11.70;96.70;;;;;;5075560;28;20056;-73
2024/01/20 13:12:20;;;;;;;1.60;0.40;;;11.60;96.70;;;;;;5084040;28;20063;-74
2024/01/20 13:14:49;;;;;;;1.33;0.50;;;11.60;96.70;;;;;;5077842;28;20118;-73
2024/01/20 13:17:20;;;;;;;0.90;0.50;;;11.60;96.70;;;;;;5083379;28;20055;-72